x

8536110 - Cape May, Nj (cman4) Weather Station

4:54am - Fri 31st Jul 2015 All times are EDT. -4 hours from GMT.

  • Wind
    10mph, 16mph gusts
  • Sea Temp 79°f
  • Air Temp 78°f
  • Sea Pressure 1011.3mb
  • 8536110 - Cape May, Nj
  • 8536110 - Cape May, Nj

More Historic Weather Station data

Upgrade to MSW Pro to gain access to the past 30 days of data for over 8000 Wavebouys and Weather Stations around the globe.

Join Pro

Comparision Forecast

View Surf forecast
   
Fri 07/31 4:54am 10 16 mph 1011.3mb 79f 78f
4:48am 9 16 mph 1011.3mb 79f 79f
4:42am 9 17 mph 1011.3mb 79f 79f
4:36am 9 17 mph 1011.3mb 79f 79f
4:30am 9 16 mph 1011.3mb 79f 79f
4:24am 8 14 mph 1011.3mb 79f 78f
4:18am 8 15 mph 1011.3mb 79f 78f
4:12am 7 14 mph 1011.3mb 79f 78f
4:06am 7 13 mph 1011.3mb 79f 78f
4:00am 8 13 mph 1011.3mb 79f 77f
3:54am 8 14 mph 1011.3mb 79f 77f
3:48am 7 9 mph 1011.2mb 79f 77f
3:42am 8 13 mph 1011.2mb 79f 77f
3:36am 8 13 mph 1011.2mb 79f 77f
3:30am 6 8 mph 1011.2mb 79f 77f
3:24am 6 8 mph 1011.2mb 79f 77f
3:18am 6 7 mph 1011.2mb 79f 76f
3:12am 6 7 mph 1011.2mb 79f 76f
3:06am 3
mph
1011.2mb 79f 75f
3:00am 3 5 mph 1011.1mb 79f 75f
2:54am 3 5 mph 1011.1mb 79f 75f
2:48am 5 6 mph 1011mb 79f 75f
2:42am 2
mph
1011mb 79f 76f
2:36am 3 5 mph 1010.9mb 79f 76f
2:30am 5
mph
1010.9mb 79f 76f
2:24am 3 5 mph 1010.9mb 79f 76f
2:18am 3 5 mph 1010.8mb 79f 76f
2:12am 3
mph
1010.9mb 79f 76f
2:06am 5
mph
1011mb 79f 76f
2:00am 5 6 mph 1011mb 79f 76f
1:54am 5 6 mph 1011.1mb 79f 76f
1:48am 5 6 mph 1011.1mb 79f 76f
1:42am 3 5 mph 1011.2mb 79f 75f
1:36am 2 3 mph 1011.3mb 79f 75f
1:30am 3
mph
1011.3mb 79f 75f
1:24am 2 3 mph 1011.3mb 79f 75f
1:18am 3
mph
1011.4mb 79f 76f
1:12am 2 3 mph 1011.4mb 79f 76f
1:06am 3 5 mph 1011.5mb 79f 76f
1:00am 5
mph
1011.5mb 79f 76f
12:54am 5
mph
1011.5mb 79f 76f
12:48am 5 6 mph 1011.6mb 79f 76f
12:42am 6
mph
1011.7mb 79f 76f
12:36am 5 6 mph 1011.8mb 79f 76f
12:30am 5 6 mph 1011.8mb 79f 76f
12:24am 6
mph
1011.8mb 79f 76f
12:18am 6
mph
1011.7mb 79f 76f
12:12am 5 6 mph 1011.7mb 79f 76f
12:06am 3 5 mph 1011.7mb 79f 76f
12:00am 3
mph
1011.8mb 79f 76f
Thu 07/30 11:54pm 2 3 mph 1011.8mb 79f 76f
11:48pm 2
mph
1011.8mb 79f 76f
11:42pm 1 2 mph 1011.7mb 79f 76f
11:36pm 2
mph
1011.8mb 79f 76f
11:30pm 2 3 mph 1011.7mb 79f 76f
11:24pm 2 3 mph 1011.6mb 79f 76f
11:18pm 2 3 mph 1011.6mb 79f 76f
11:12pm 1 2 mph 1011.6mb 79f 76f
11:06pm  -  1 mph 1011.6mb 79f 76f
11:00pm 1
mph
1011.6mb 79f 76f
10:54pm 2
mph
1011.6mb 79f 76f
10:48pm 3 5 mph 1011.7mb 79f 76f
10:42pm 3
mph
1011.6mb 79f 76f
10:36pm 3 5 mph 1011.7mb 78f 76f
10:30pm 5 6 mph 1011.6mb 79f 76f
10:24pm 5 6 mph 1011.6mb 78f 76f
10:18pm 6 7 mph 1011.7mb 78f 76f
10:12pm 7 8 mph 1011.9mb 78f 76f
10:06pm 6 7 mph 1011.9mb 78f 76f
10:00pm 6 7 mph 1011.9mb 78f 76f
9:54pm 6
mph
1011.8mb 78f 76f
9:48pm 6
mph
1011.8mb 79f 76f
9:42pm 3 5 mph 1011.8mb 79f 77f
9:36pm 3 5 mph 1011.8mb 79f 77f
9:30pm 3
mph
1011.8mb 80f 77f
9:24pm 2 3 mph 1011.6mb 80f 77f
9:18pm 2 3 mph 1011.5mb 80f 77f
9:12pm 3 5 mph 1011.5mb 80f 77f
9:06pm 3 5 mph 1011.4mb 80f 77f
9:00pm 5 6 mph 1011.4mb 80f 77f
8:54pm 3
mph
1011.2mb 80f 77f
8:48pm 3 5 mph 1011.2mb 80f 77f
8:42pm 3
mph
1011.1mb 80f 77f
8:36pm 2
mph
1011.1mb 80f 77f
8:30pm 3
mph
1011mb 80f 78f
8:24pm 3
mph
1011mb 80f 78f
8:18pm 5 7 mph 1010.9mb 80f 78f
8:12pm 5 6 mph 1010.9mb 80f 78f
8:06pm 2 5 mph 1010.9mb 80f 78f
8:00pm 3 5 mph 1010.8mb 80f 78f
7:54pm 6 7 mph 1010.7mb 80f 78f
7:48pm 6 8 mph 1010.8mb 80f 79f
7:42pm 2 7 mph 1010.7mb 80f 79f
7:36pm  -  3 mph 1010.7mb 80f 79f
7:30pm 5 7 mph 1010.7mb 80f 79f
7:24pm 2 7 mph 1010.6mb 80f 78f
7:18pm 6 7 mph 1010.6mb 80f 78f
7:12pm 5 6 mph 1010.4mb 80f 78f
7:06pm 6 7 mph 1010.3mb 80f 78f
7:00pm 13 15 mph 1010.4mb 80f 77f
6:54pm 13 15 mph 1010.3mb 80f 77f
6:48pm 13 16 mph 1010.2mb 80f 79f
6:42pm 9 14 mph 1010mb 80f 80f
6:36pm 9 13 mph 1010mb 80f 80f
6:30pm 11 16 mph 1010mb 80f 80f
6:24pm 10 15 mph 1009.9mb 80f 79f
6:18pm 13 17 mph 1009.9mb 80f 80f
6:12pm 13 18 mph 1009.9mb 80f 79f
6:06pm 13 20 mph 1010mb 80f 80f
6:00pm 13 17 mph 1010.1mb 80f 80f
5:54pm 13 18 mph 1010.2mb 80f 80f
5:48pm 14 20 mph 1010.3mb 80f 80f
5:42pm 13 20 mph 1010.3mb 81f 79f
5:36pm 13 17 mph 1010.4mb 81f 79f
5:30pm 14 21 mph 1010.5mb 81f 79f
5:24pm 14 23 mph 1010.4mb 81f 79f
5:18pm 14 22 mph 1010.5mb 80f 79f
5:12pm 14 21 mph 1010.5mb 80f 79f
5:06pm 14 21 mph 1010.5mb 80f 79f
5:00pm 13 16 mph 1010.5mb 80f 79f
4:54pm 14 22 mph 1010.6mb 80f 79f
4:48pm 13 20 mph 1010.6mb 81f 79f
4:42pm 15 22 mph 1010.5mb 80f 79f
4:36pm 13 21 mph 1010.5mb 81f 79f
4:30pm 16 21 mph 1010.6mb 81f 79f
4:24pm 18 25 mph 1010.5mb 81f 79f
4:18pm 18 24 mph 1010.6mb 81f 79f
4:12pm 15 22 mph 1010.6mb 81f 79f
4:06pm 18 25 mph 1010.6mb 81f 79f
4:00pm 18 24 mph 1010.7mb 81f 79f
3:54pm 20 25 mph 1010.8mb 81f 79f
3:48pm 17 24 mph 1011mb 81f 80f
3:42pm 16 24 mph 1011mb 81f 80f
3:36pm 16 24 mph 1011.1mb 81f 80f
3:30pm 15 21 mph 1011mb 81f 80f
3:24pm 17 23 mph 1011.1mb 81f 80f
3:18pm 15 20 mph 1011.1mb 81f 80f
3:12pm 15 23 mph 1011.4mb 81f 80f
3:06pm 18 26 mph 1011.3mb 81f 80f
3:00pm 16 24 mph 1011.4mb 81f 80f
2:54pm 15 22 mph 1011.6mb 81f 80f
2:48pm 16 21 mph 1011.5mb 81f 80f
2:42pm 16 21 mph 1011.6mb 81f 80f
2:36pm 16 22 mph 1011.6mb 81f 80f
2:30pm 14 22 mph 1011.7mb 81f 80f
2:24pm 14 18 mph 1011.7mb 81f 81f
2:18pm 16 22 mph 1011.7mb 80f 81f
2:12pm 15 20 mph 1011.9mb 80f 81f
2:06pm 15 20 mph 1011.9mb 80f 81f
2:00pm 15 20 mph 1011.9mb 80f 81f
1:54pm 11 17 mph 1012mb 80f 81f
1:48pm 15 20 mph 1012.1mb 80f 81f
1:42pm 13 18 mph 1012.2mb 80f 81f
1:36pm 14 20 mph 1012.2mb 80f 81f
1:30pm 14 18 mph 1012.3mb 80f 81f
1:24pm 15 21 mph 1012.4mb 79f 80f
1:18pm 14 17 mph 1012.5mb 79f 80f
1:12pm 11 15 mph 1012.6mb 79f 80f
1:06pm 13 20 mph 1012.6mb 80f 80f
1:00pm 15 20 mph 1012.6mb 80f 80f
12:54pm 14 18 mph 1012.7mb 79f 80f
12:48pm 13 15 mph 1012.8mb 79f 80f
12:42pm 14 18 mph 1012.9mb 79f 80f
12:36pm 10 15 mph 1013.1mb 79f 80f
12:30pm 13 16 mph 1013.2mb 79f 80f
12:24pm 14 21 mph 1013.2mb 79f 80f
12:18pm 13 16 mph 1013.2mb 79f 80f
12:12pm 13 16 mph 1013.3mb 79f 79f
12:06pm 14 21 mph 1013.3mb 79f 80f
12:00pm 11 17 mph 1013.4mb 79f 80f
11:54am 14 18 mph 1013.4mb 79f 80f
11:48am 11 16 mph 1013.5mb 78f 80f
11:42am 13 20 mph 1013.4mb 78f 80f
11:36am 11 18 mph 1013.5mb 78f 79f
11:30am 10 15 mph 1013.5mb 78f 79f
11:24am 14 20 mph 1013.6mb 78f 79f
11:18am 13 18 mph 1013.5mb 78f 79f
11:12am 15 18 mph 1013.4mb 78f 79f
11:06am 13 16 mph 1013.5mb 78f 79f
11:00am 14 17 mph 1013.5mb 78f 79f
10:54am 11 18 mph 1013.5mb 78f 79f
10:48am 13 17 mph 1013.5mb 78f 79f
10:42am 11 17 mph 1013.6mb 78f 79f
10:36am 9 15 mph 1013.6mb 78f 80f
10:30am 9 13 mph 1013.7mb 77f 79f
10:24am 10 15 mph 1013.6mb 77f 79f
10:18am 10 14 mph 1013.6mb 77f 79f
10:12am 10 14 mph 1013.5mb 77f 79f
10:06am 10 14 mph 1013.5mb 77f 79f
10:00am 10 16 mph - - -
9:42am 10 13 mph 1013.7mb 77f 78f
9:36am 6 10 mph 1013.7mb 77f 79f
9:30am 13 17 mph 1013.7mb 77f 79f
9:24am 10 16 mph 1013.7mb 77f 79f
9:18am 10 15 mph 1013.8mb 78f 78f
9:06am 8 13 mph 1013.8mb 78f 78f
9:00am 10 15 mph 1013.8mb 78f 77f
8:54am 9 16 mph 1013.9mb 78f 77f
8:42am  -  mph - - 77f
8:36am  -  mph - - 77f
8:30am  -  mph - - 77f
8:24am  -  mph - - 77f
8:18am  -  mph - - 77f
8:12am  -  mph - - 77f
8:06am  -  mph - - 77f
8:00am  -  mph - - 77f
7:30am  -  mph - - 76f
7:24am  -  mph - - 76f
7:18am  -  mph - - 76f
7:12am  -  mph - - 76f
7:06am  -  mph - - 76f
7:00am  -  mph - - 76f
6:54am  -  mph - - 76f
6:48am  -  mph - - 76f
6:42am  -  mph - - 76f
6:36am  -  mph - - 75f
6:30am  -  mph - - 75f
6:24am  -  mph - - 75f
6:18am  -  mph - - 75f
6:12am  -  mph - - 75f
6:06am  -  mph - - 75f
6:00am  -  mph - - 75f
5:48am  -  mph 1013.7mb 77f 75f
5:42am  -  mph 1013.7mb 77f 75f
5:36am  -  mph 1013.6mb 77f 75f
5:30am  -  mph 1013.6mb 77f 75f
5:24am  -  mph 1013.6mb 77f 75f
5:18am  -  mph - - 75f
5:12am  -  mph - - 75f
5:06am  -  mph - - 75f
5:00am  -  mph - 77f 75f
4:54am  -  mph - 78f 76f
4:48am  -  mph - 78f 76f
4:42am  -  mph - 78f 76f
4:36am  -  mph - 78f 76f
4:30am  -  mph - - 75f
4:24am  -  mph - - 75f
4:18am  -  mph - - 75f
4:12am  -  mph - - 75f
4:06am  -  mph - - 75f
4:00am  -  mph 1013.8mb - 75f
3:54am  -  mph 1013.8mb - 75f
3:48am  -  mph - - 75f
3:42am  -  mph - - 75f
3:36am  -  mph - - 75f
3:30am  -  mph - 79f 75f
3:24am  -  mph - 79f 75f
3:18am  -  mph - 79f 75f
3:12am  -  mph - 79f 75f
3:06am  -  mph - 79f 75f
3:00am  -  mph - 79f 75f
2:54am  -  mph - 78f 76f
2:48am  -  mph - - 76f
2:42am  -  mph - - 76f
2:36am  -  mph - - 76f
2:30am  -  mph 1014.2mb 78f 75f
2:24am  -  mph 1014.2mb 78f 76f
2:18am  -  mph 1014.3mb 78f 75f
2:12am  -  mph 1014.3mb 78f 75f
2:06am  -  mph 1014.4mb 78f 75f
2:00am  -  mph 1014.4mb 78f 75f
1:54am  -  mph 1014.5mb 78f 75f
1:48am  -  mph 1014.6mb 78f 75f
1:18am  -  mph - - 76f
1:12am  -  mph - - 76f
1:06am  -  mph - - 76f
1:00am  -  mph - - 76f
12:54am  -  mph - - 76f
12:48am  -  mph - - 76f
12:42am  -  mph - - 76f
12:36am  -  mph - - 76f
12:30am  -  mph - - 76f
12:24am  -  mph - - 76f
12:18am  -  mph - - 76f
12:12am  -  mph - - 76f
12:06am  -  mph - - 76f
12:00am  -  mph - - 76f
Wed 07/29 11:54pm  -  mph - - 76f
11:48pm  -  mph - - 76f
11:42pm  -  mph - - 76f
11:36pm  -  mph - - 76f
11:30pm  -  mph - - 76f
11:24pm  -  mph - - 76f
11:18pm  -  mph - - 76f
11:12pm  -  mph - - 76f
11:06pm  -  mph - - 76f
11:00pm  -  mph - - 76f
10:54pm  -  mph - - 76f
10:48pm  -  mph - - 77f
10:42pm  -  mph - - 77f
10:36pm  -  mph - - 77f
10:30pm  -  mph - - 77f
10:24pm  -  mph - - 77f
10:18pm  -  mph - - 77f
10:12pm  -  mph - - 77f
10:06pm  -  mph - - 77f
10:00pm  -  mph - 79f 77f
9:54pm  -  mph - 78f 77f
9:48pm 8 13 mph 1014.9mb 79f 77f
9:42pm 8 13 mph 1014.8mb 79f 77f
9:36pm 8 11 mph 1014.7mb 78f 77f
9:30pm  -  mph - 78f 77f
9:24pm  -  mph - 78f 77f
9:18pm  -  mph - - 77f
9:12pm  -  mph - - 77f
9:06pm  -  mph - - 77f
9:00pm  -  mph - - 77f
8:54pm  -  mph - - 78f
8:48pm 7 10 mph 1014.3mb 79f 78f
8:42pm 7 10 mph 1014.3mb 80f 78f
8:36pm 8 10 mph 1014.3mb 80f 78f
8:30pm  -  mph 1014.3mb 81f 77f
8:24pm  -  mph 1014.4mb 81f 77f
8:18pm  -  mph 1014.3mb 81f 77f
8:12pm  -  mph 1014.4mb 81f 77f
8:06pm  -  mph 1014.4mb 81f 77f
8:00pm  -  mph - 81f 77f
7:54pm  -  mph - 81f 78f
7:48pm  -  mph - 81f 78f
7:42pm  -  mph - 81f 78f
7:36pm  -  mph - 81f 78f
7:30pm  -  mph - 81f 78f
7:24pm  -  mph - 81f 78f
7:18pm  -  mph - 81f 78f
7:12pm  -  mph - 81f 78f
7:06pm  -  mph - 81f 78f
7:00pm 3 6 mph 1014.2mb 81f 78f
6:54pm 2 3 mph 1014.3mb 81f 78f
6:48pm 3 6 mph 1014.4mb 81f 78f
6:42pm 3 6 mph 1014.3mb 81f 78f
6:36pm 3 6 mph 1014.3mb 81f 78f
6:30pm  -  mph - 81f 78f
6:24pm  -  mph - 81f 78f
6:18pm  -  mph - - 78f
6:12pm  -  mph - - 79f
6:06pm  -  mph - - 79f
6:00pm  -  mph - 81f 79f
5:54pm  -  mph - 81f 79f
5:48pm  -  mph - 81f 79f
5:42pm  -  mph - 81f 79f
5:36pm  -  mph - 81f 80f
5:30pm  -  mph - 81f 79f
5:24pm  -  mph - 81f 80f
5:18pm  -  mph - 81f 79f
5:12pm  -  mph - 81f 79f
5:06pm  -  mph - 81f 78f
5:00pm  -  mph 1014.9mb 81f 77f
4:54pm  -  mph 1015mb 81f 77f
4:48pm  -  mph 1015mb 81f 78f
4:42pm  -  mph 1015mb 81f 78f
4:36pm  -  mph 1015.2mb 81f 78f
4:30pm  -  mph 1015.2mb 81f 78f
4:24pm  -  mph 1015.3mb 81f 78f
4:18pm  -  mph - - 78f
4:12pm  -  mph - - 78f
4:06pm  -  mph - - 79f
4:00pm  -  mph - - 79f
3:54pm  -  mph - - 79f
3:48pm  -  mph - - 78f
3:42pm  -  mph - - 81f
3:36pm  -  mph - - 81f
3:30pm  -  mph - - 81f
3:24pm  -  mph - - 81f
3:18pm  -  mph - - 81f
3:12pm  -  mph - - 81f
3:06pm  -  mph - - 82f
3:00pm  -  mph - - 81f
2:54pm  -  mph - - 82f
2:48pm  -  mph - - 82f
2:42pm  -  mph - - 82f
2:36pm  -  mph - - 82f
2:30pm  -  mph - - 82f
2:24pm  -  mph - - 82f
2:18pm  -  mph - - 82f
2:12pm  -  mph - - 82f
2:06pm  -  mph - - 82f
2:00pm  -  mph - - 82f
1:54pm  -  mph - - 82f
1:48pm  -  mph - - 83f
1:42pm  -  mph - - 82f
1:36pm  -  mph - - 83f
1:30pm  -  mph - - 82f
1:24pm  -  mph - - 82f
1:18pm 13 15 mph 1015.9mb 82f 82f
1:12pm 10 13 mph 1016mb 81f 82f
1:06pm 9 11 mph 1016mb 81f 83f
1:00pm 6 8 mph 1016mb 80f 83f
12:54pm 7 9 mph 1016mb 80f 84f
12:48pm 7 11 mph 1016mb 80f 83f
11:54am 3 5 mph 1016.2mb 80f 82f
11:48am 3 5 mph 1016.3mb 79f 82f
11:42am 3
mph
1016.2mb 79f 83f
11:36am 3
mph
1016.2mb 79f 83f
11:30am 2
mph
1016.2mb 79f 83f
11:24am 3
mph
1016.3mb 79f 83f
11:18am 3
mph
1016.4mb 79f 82f
11:12am 3
mph
1016.5mb 79f 81f
11:06am 3
mph
1016.5mb 79f 81f
11:00am 3
mph
1016.4mb 79f 82f
10:54am 3
mph
1016.5mb 79f 82f
10:48am 3
mph
1016.4mb 79f 80f
10:42am 3
mph
1016.5mb 79f 80f
10:36am 2 3 mph 1016.4mb 79f 81f
10:30am 3
mph
1016.5mb 79f 82f
10:24am 3
mph
1016.5mb 79f 80f
10:18am 3
mph
1016.5mb 79f 81f
10:12am 5
mph
1016.5mb 79f 81f
10:06am 3 5 mph 1016.4mb 79f 80f
10:00am 5 6 mph 1016.6mb 78f 80f
9:54am 5 6 mph 1016.6mb 78f 79f
9:48am 6
mph
1016.6mb 78f 79f
9:42am 6
mph
1016.7mb 78f 78f
9:36am 6
mph
1016.7mb 78f 78f
9:30am 5 6 mph 1016.6mb 78f 78f
9:24am 5 6 mph 1016.6mb 78f 78f
9:18am 5 6 mph 1016.6mb 78f 78f
9:12am 6 7 mph 1016.7mb 78f 78f
9:06am 6 7 mph 1016.6mb 78f 77f
9:00am 6 7 mph 1016.5mb 78f 77f
8:54am 6 7 mph 1016.5mb 78f 77f
8:48am 5 6 mph 1016.3mb 78f 77f
8:42am 5 6 mph 1016.3mb 78f 77f
8:36am 5 6 mph 1016.2mb 78f 77f
8:30am 6 7 mph 1016.3mb 78f 77f
8:24am 6
mph
1016.2mb 78f 77f
8:18am 5 6 mph 1016.1mb 78f 77f
8:12am 5 6 mph 1016.1mb 79f 76f
8:06am 6 7 mph 1016.1mb 79f 76f
8:00am 6
mph
1016mb 79f 77f
7:54am 6 7 mph 1016mb 79f 76f
7:48am 6 7 mph 1015.9mb 79f 76f
7:42am 7
mph
1015.8mb 79f 76f
7:36am 6 7 mph 1015.7mb 79f 76f
7:30am 6 8 mph 1015.6mb 79f 75f
7:24am 6 7 mph 1015.7mb 79f 75f
7:18am 5 6 mph 1015.6mb 79f 75f
7:12am 5 6 mph 1015.6mb 79f 75f
7:06am 6 8 mph 1015.6mb 79f 75f
7:00am 5 6 mph 1015.6mb 79f 74f
6:54am 3 6 mph 1015.5mb 79f 74f
6:48am 6 7 mph 1015.5mb 79f 74f
6:42am 5 6 mph 1015.5mb 79f 74f
6:36am 6 7 mph 1015.4mb 79f 74f
6:30am 5 6 mph 1015.4mb 78f 74f
6:24am 5 6 mph 1015.4mb 78f 74f
6:18am 5 6 mph 1015.5mb 78f 74f
6:12am 3 5 mph 1015.5mb 78f 74f
6:06am 5 6 mph 1015.4mb 78f 74f
6:00am 5 7 mph 1015.3mb 78f 74f
5:54am 5 6 mph 1015.2mb 78f 74f
5:48am 6 7 mph 1015.1mb 78f 74f
5:42am 6 7 mph 1015mb 78f 74f
5:36am 6 7 mph 1015mb 78f 74f
5:30am 7 8 mph 1014.9mb 78f 74f
5:24am 6 7 mph 1014.8mb 78f 74f
5:18am 6 7 mph 1014.8mb 78f 74f
5:12am 6 8 mph 1014.8mb 78f 74f
5:06am 7 8 mph 1014.7mb 78f 74f
5:00am 6 7 mph 1014.7mb 78f 74f
4:54am 6 8 mph 1014.7mb 78f 74f
4:48am 6
mph
1014.7mb 78f 75f
4:42am 3 5 mph 1014.6mb 78f 75f
4:36am 5 6 mph 1014.6mb 78f 75f
4:30am 3 5 mph 1014.6mb 78f 75f
4:24am 3 5 mph 1014.5mb 78f 75f
4:18am 3
mph
1014.6mb 78f 75f
4:12am 2 5 mph 1014.6mb 78f 76f
4:06am 2 3 mph 1014.7mb 79f 76f
4:00am 3
mph
1014.7mb 79f 77f
3:54am 5 6 mph 1014.7mb 79f 77f
3:48am 6 7 mph 1014.8mb 79f 77f
3:42am 5 6 mph 1014.8mb 79f 77f
3:36am 6
mph
1014.8mb 79f 77f
3:30am 5 6 mph 1014.7mb 79f 77f
3:24am 5
mph
1014.8mb 79f 77f
3:18am 6
mph
1014.9mb 79f 77f
3:12am 5 6 mph 1015mb 79f 77f
3:06am 3 5 mph 1015.1mb 79f 77f
3:00am 5 6 mph 1015.1mb 79f 77f
2:54am 5
mph
1015.1mb 79f 77f
2:48am 3 5 mph - 79f 77f
2:42am 5 6 mph - 79f 77f
2:36am 5 6 mph - 79f 77f
2:30am 5
mph
1015.1mb 79f 77f
2:24am 2 3 mph 1015.1mb 79f 77f
2:18am 5 6 mph 1015.1mb 79f 77f
2:12am 7 8 mph 1015.2mb 79f 77f
2:06am 8
mph
1015.2mb 79f 77f
2:00am 8 9 mph 1015.2mb 79f 77f
1:54am 7 8 mph 1015.2mb 79f 77f
1:48am 7 8 mph 1015.2mb 79f 77f
1:42am 7 8 mph 1015.1mb 79f 77f
1:36am 7 8 mph 1015.2mb 80f 77f
1:30am 7 8 mph 1015.3mb 80f 77f
1:24am 6 8 mph 1015.4mb 80f 76f
1:18am 6 7 mph 1015.4mb 80f 76f
1:12am 6 7 mph 1015.5mb 80f 76f
1:06am 5 6 mph 1015.5mb 80f 76f
1:00am 5 6 mph 1015.5mb 80f 76f
12:54am 5 7 mph 1015.6mb 80f 76f
12:48am 5 6 mph 1015.5mb 80f 76f
12:42am 3 5 mph 1015.6mb 80f 76f
12:36am 3 5 mph 1015.5mb 80f 76f
12:30am 3 5 mph 1015.6mb 80f 76f
12:24am 6
mph
1015.6mb 80f 76f
12:18am 5 7 mph 1015.6mb 80f 76f
12:12am 3 5 mph 1015.6mb 80f 76f
12:06am 5 6 mph 1015.7mb 80f 76f
12:00am 5 6 mph 1015.6mb 80f 76f
Tue 07/28 11:54pm 5 6 mph 1015.6mb 80f 76f
11:48pm 5 7 mph 1015.7mb 80f 76f
11:42pm 6 7 mph 1015.7mb 80f 76f
11:36pm 3 6 mph 1015.7mb 80f 76f
11:30pm 5 6 mph 1015.7mb 80f 76f
11:24pm 3 5 mph 1015.8mb 80f 76f
11:18pm 3
mph
1015.8mb 79f 76f
11:12pm 3 5 mph 1015.8mb 79f 76f
11:06pm 3
mph
1015.8mb 80f 76f
11:00pm 2 5 mph 1015.9mb 80f 76f
10:54pm 1 2 mph 1015.8mb 80f 76f
10:48pm 2 5 mph 1015.8mb 80f 76f
10:42pm 1 2 mph 1015.8mb 80f 76f
10:36pm 2 3 mph 1015.7mb 80f 76f
10:30pm 2 3 mph 1015.6mb 80f 76f
10:24pm 3 6 mph 1015.5mb 80f 76f
10:18pm 3 6 mph 1015.5mb 80f 76f
10:12pm 7 9 mph 1015.4mb 80f 77f
10:06pm 8 10 mph 1015.4mb 80f 77f
10:00pm 7 9 mph 1015.2mb 80f 76f
9:54pm 7 8 mph 1015.2mb 80f 76f
9:48pm 6 7 mph 1015.1mb 80f 76f
9:42pm 6 7 mph 1015.2mb 80f 76f
9:36pm 5 7 mph 1015.1mb 80f 76f
9:30pm 6 8 mph 1015.2mb 80f 75f
9:24pm 6 8 mph 1015.1mb 80f 75f
9:18pm 7 9 mph 1015.2mb 80f 75f
9:12pm 7 9 mph 1015.3mb 80f 75f
9:06pm 6 8 mph 1015.3mb 79f 75f
9:00pm 5 6 mph 1015.3mb 81f 75f
8:54pm 5 7 mph 1015.4mb 81f 76f
8:48pm 6 7 mph 1015.2mb 81f 76f
8:42pm 6 7 mph 1015.2mb 81f 76f
8:36pm 5 6 mph 1015.2mb 81f 77f
8:30pm 5 6 mph 1015.3mb 80f 77f
8:24pm 5 6 mph 1015.3mb 80f 77f
8:18pm 6 7 mph 1015.3mb 80f 77f
8:12pm 3 6 mph 1015.3mb 81f 77f
8:06pm 3 6 mph 1015.2mb 81f 77f
8:00pm 6 8 mph 1015.1mb 81f 78f
7:54pm 7 9 mph 1014.8mb 81f 78f
7:48pm 7 9 mph 1014.8mb 81f 78f
7:42pm 8 10 mph 1014.8mb 82f 78f
7:36pm 6 8 mph 1014.6mb 82f 78f
7:30pm 8 11 mph 1014.5mb 82f 79f
7:24pm 9 11 mph 1014.4mb 82f 79f
7:18pm 8 13 mph 1014.4mb 82f 79f
7:12pm 6 8 mph 1014.4mb 82f 79f
7:06pm 8 14 mph 1014.4mb 82f 78f
7:00pm 9 13 mph 1014.4mb 82f 78f
6:54pm 11 14 mph 1014.4mb 82f 79f
6:48pm 10 14 mph 1014.3mb 82f 79f
6:42pm 11 15 mph 1014.4mb 82f 79f
6:36pm 10 14 mph 1014.5mb 82f 80f
6:30pm 10 14 mph 1014.6mb 82f 80f
6:24pm 13 16 mph 1014.6mb 82f 80f
6:18pm 10 15 mph 1014.5mb 82f 80f
6:12pm 10 14 mph 1014.6mb 82f 80f
6:06pm 10 15 mph 1014.7mb 82f 80f
6:00pm 11 14 mph 1014.6mb 82f 80f
5:54pm 11 15 mph 1014.5mb 82f 80f
5:48pm 13 17 mph 1014.5mb 82f 80f
5:42pm 10 14 mph 1014.6mb 82f 80f
5:36pm 13 16 mph 1014.7mb 82f 81f
5:30pm 10 16 mph 1014.7mb 82f 81f
5:24pm 11 17 mph 1014.8mb 82f 81f
5:18pm 11 14 mph 1014.9mb 82f 81f
5:12pm 13 17 mph 1014.8mb 82f 81f
5:06pm 9 14 mph 1014.7mb 82f 81f
5:00pm 9 14 mph 1014.8mb 82f 81f
4:54pm 10 13 mph 1014.7mb 82f 81f
4:48pm 11 13 mph 1014.8mb 82f 81f
4:42pm 7 9 mph 1014.9mb 82f 82f
4:36pm 7 11 mph 1015mb 82f 82f
4:30pm 8 11 mph 1014.9mb 82f 82f
4:24pm 8 13 mph 1014.8mb 82f 82f
4:18pm 8 11 mph 1014.8mb 82f 81f
4:12pm 10 15 mph 1014.8mb 82f 81f
4:06pm 10 14 mph 1014.7mb 82f 81f
4:00pm 13 16 mph 1014.7mb 82f 80f
3:54pm 13 16 mph 1014.7mb 82f 80f
3:48pm 13 14 mph 1014.7mb 82f 80f
3:42pm 10 14 mph 1014.8mb 82f 80f
3:36pm 10 14 mph 1014.8mb 81f 81f
3:30pm 7 11 mph 1014.8mb 81f 81f
3:24pm 9 13 mph 1014.8mb 81f 80f
3:18pm 10 14 mph 1014.8mb 81f 80f
3:12pm 10 13 mph 1014.8mb 81f 80f
3:06pm 8 10 mph 1014.8mb 82f 81f
3:00pm 8 11 mph 1014.9mb 82f 81f
2:54pm 11 14 mph 1014.9mb 82f 81f
2:48pm 9 11 mph 1014.9mb 82f 80f
2:42pm 10 13 mph 1014.9mb 82f 80f
2:36pm 10 13 mph 1015mb 82f 80f
2:30pm 9 13 mph 1015.1mb 82f 81f
2:24pm 9 11 mph 1015.1mb 81f 81f
2:18pm 6 9 mph 1015.2mb 81f 82f
2:12pm 8 9 mph 1015.2mb 81f 81f
2:06pm 7 9 mph 1015.3mb 81f 82f
2:00pm 7 8 mph 1015.3mb 81f 82f
1:54pm 7 9 mph 1015.3mb 82f 82f
1:48pm 8 9 mph 1015.3mb 82f 81f
1:42pm 7 8 mph 1015.5mb 82f 80f
1:36pm 7 8 mph 1015.5mb 81f 80f
1:30pm 8 9 mph 1015.5mb 81f 80f
1:24pm 8 10 mph 1015.6mb 82f 80f
1:18pm 9 10 mph 1015.7mb 82f 80f
1:12pm 8 10 mph 1015.7mb 82f 79f
1:06pm 8 9 mph 1015.6mb 82f 80f
1:00pm 9 10 mph 1015.5mb 81f 79f
12:54pm 8 10 mph 1015.6mb 81f 79f
12:48pm 10 11 mph 1015.8mb 81f 79f
12:42pm 8 10 mph 1015.8mb 81f 79f
12:36pm 9 11 mph 1015.8mb 81f 79f
12:30pm 9 10 mph 1015.9mb 81f 79f
12:24pm 9 11 mph 1015.9mb 81f 78f
12:18pm 11
mph
1015.9mb 81f 78f
12:12pm 8 9 mph 1015.9mb 81f 78f
12:06pm 8 10 mph 1016.1mb 81f 78f
12:00pm 9 10 mph 1016.1mb 80f 78f
11:54am 8 9 mph 1016mb 80f 78f
11:48am 8 9 mph 1016.1mb 79f 79f
11:42am 7 9 mph 1016mb 79f 79f
11:36am 6 7 mph 1016mb 79f 79f
11:30am 6 7 mph 1016mb 79f 79f
11:24am 6 7 mph 1016mb 79f 79f
11:18am 6 7 mph 1016mb 79f 79f
11:12am 5 6 mph 1016mb 79f 79f
11:06am 6 7 mph 1016.1mb 79f 79f
11:00am 5 6 mph 1016.1mb 79f 79f
10:54am 5 6 mph 1016.2mb 79f 79f
10:48am 5
mph
1016.2mb 79f 78f
10:42am 5 6 mph 1016.2mb 79f 77f
10:36am 6
mph
1016.1mb 80f 78f
10:30am 6 7 mph 1016.1mb 79f 78f
10:24am 6
mph
1016mb 80f 78f
10:18am 6 7 mph 1016mb 79f 77f
10:12am 6 7 mph 1016mb 79f 77f
10:06am 6
mph
1016mb 79f 77f
10:00am 6
mph
1016.1mb 79f 76f
9:54am 6
mph
1016.2mb 79f 77f
9:48am 5 6 mph 1016.2mb 79f 76f
9:42am 5 6 mph 1016.3mb 79f 77f
9:36am 6
mph
1016.2mb 79f 78f
9:30am 5 6 mph 1016.3mb 79f 78f
9:24am 5 6 mph 1016.2mb 79f 77f
9:18am 6
mph
1016.2mb 79f 78f
9:12am 6
mph
1016.3mb 79f 77f
9:06am 5 6 mph 1016.3mb 79f 76f
9:00am 5 6 mph 1016.3mb 79f 76f
8:54am 6 7 mph 1016.3mb 79f 78f
8:48am 2
mph
1016.3mb 79f 78f
8:42am 1 2 mph 1016.3mb 79f 78f
8:36am 2 3 mph 1016.4mb 78f 78f
8:30am  -  1 mph 1016.3mb 78f 78f
8:24am 2 3 mph 1016.3mb 78f 77f
8:18am 3
mph
1016.3mb 78f 78f
8:12am 2 3 mph 1016.2mb 78f 79f
8:06am 1 2 mph 1016.2mb 78f 78f
8:00am 1
mph
1016.2mb 78f 78f
7:54am  -  1 mph 1016.2mb 78f 77f
7:48am 2 3 mph 1016.1mb 78f 77f
7:42am 1 2 mph 1016.1mb 78f 76f
7:36am 1 2 mph 1016.2mb 78f 76f
7:30am  -  1 mph 1016.1mb 79f 75f
7:24am  -  1 mph 1016.1mb 79f 75f
7:18am  -  1 mph 1016.1mb 79f 74f
7:12am 2 3 mph 1016.1mb 79f 74f
7:06am 3
mph
1016.1mb 79f 74f
7:00am 3
mph
1016mb 79f 73f
6:54am 2 3 mph 1016mb 79f 73f
6:48am 1 2 mph 1015.9mb 79f 73f
6:42am  -  1 mph 1015.9mb 79f 73f
6:36am 1 2 mph 1015.9mb 79f 73f
6:30am 2
mph
1015.9mb 79f 73f
6:24am 1 3 mph 1015.8mb 79f 73f
6:18am 1 2 mph 1015.7mb 79f 72f
6:12am 1
mph
1015.7mb 79f 72f
6:06am 2
mph
1015.8mb 79f 73f
6:00am 2
mph
1015.8mb 79f 73f
5:54am 2
mph
1015.8mb 79f 73f
5:48am 1 2 mph 1015.8mb 79f 73f
5:42am  -  2 mph 1015.7mb 79f 73f
5:36am 2
mph
1015.7mb 79f 73f
5:30am 2
mph
1015.6mb 79f -
5:24am 1 2 mph 1015.5mb 79f -
5:18am  -  mph - - 73f
5:12am  -  mph - - 73f
5:06am  -  mph - - 73f
5:00am 2 3 mph 1015.6mb 79f 73f
4:54am 1 2 mph 1015.8mb 79f 73f
4:48am 1 2 mph 1015.7mb 79f 74f
4:42am 1 2 mph 1015.8mb 79f 74f
4:36am 1 2 mph 1015.8mb 79f 74f
4:30am 2
mph
1015.7mb 79f 74f
4:24am 2 3 mph 1015.7mb 79f 74f
4:18am 2
mph
1015.7mb 79f 74f
4:12am 2 3 mph 1015.7mb 79f 74f
4:06am 2 3 mph 1015.8mb 79f 74f
4:00am 3 6 mph 1015.8mb 79f 75f
3:54am 3 5 mph 1015.8mb 79f 75f
3:48am 2 5 mph 1015.8mb 79f 74f
3:42am 2 3 mph 1015.8mb 79f 74f
3:36am 2 3 mph 1015.7mb 79f 74f
3:30am 3 6 mph 1015.7mb 79f 74f
3:24am 3 5 mph 1015.7mb 79f 74f
3:18am 2
mph
1015.8mb 79f 74f
3:12am 2 3 mph 1015.8mb 79f 74f
3:06am 2 3 mph 1015.9mb 79f 74f
3:00am 2 3 mph 1015.8mb 79f 74f
2:54am 2 3 mph 1016mb 79f 75f
2:48am 5 6 mph 1016mb 79f 75f
2:42am 5 6 mph 1015.9mb 79f 75f
2:36am 5 6 mph 1016mb 79f 76f
2:30am 6 7 mph 1016mb 79f 76f
2:24am 7 8 mph 1016mb 79f 76f
2:18am 6 8 mph 1016mb 79f 76f
2:12am 6 9 mph 1016mb 79f 75f
2:06am 6 8 mph 1015.9mb 79f 75f
2:00am 5 8 mph 1016mb 79f 75f
1:54am 6 8 mph 1016mb 79f 75f
1:48am 6 9 mph 1016mb 79f 75f
1:42am 7 8 mph 1016mb 79f 76f
1:36am 6 8 mph 1016mb 79f 76f
1:30am 5 8 mph 1016mb 79f 76f
1:24am 6 9 mph 1016.1mb 79f 76f
1:18am 6 9 mph 1016.1mb 79f 75f
1:12am 7 8 mph 1016.1mb 80f 75f
1:06am 6 8 mph 1016.2mb 80f 75f
1:00am 7 9 mph 1016.1mb 80f 75f
12:54am 7 9 mph 1016.1mb 80f 75f
12:48am 7 9 mph 1016.2mb 80f 75f
12:42am 6 8 mph 1016.2mb 80f 75f
12:36am 5
mph
1016.2mb 80f 75f
12:30am 5 6 mph 1016.2mb 80f 75f
12:24am 5 6 mph 1016.3mb 80f 75f
12:18am 5 7 mph 1016.2mb 80f 75f
12:12am 5 6 mph 1016.2mb 80f 75f
12:06am 5 6 mph 1016.1mb 80f 75f
12:00am 5 7 mph 1016.2mb 80f 75f
Mon 07/27 11:54pm 5 6 mph 1016.2mb 80f 75f
11:48pm 5 8 mph 1016.2mb 80f 75f
11:42pm 6 7 mph 1016.3mb 80f 75f
11:36pm 5 6 mph 1016.2mb 80f 75f
11:30pm 6 7 mph 1016.2mb 80f 75f
11:24pm 5 6 mph 1016.2mb 80f 75f
11:18pm 5 7 mph 1016.2mb 80f 75f
11:12pm 5 7 mph 1016.2mb 80f 75f
11:06pm 6 7 mph 1016.2mb 80f 75f
11:00pm 6 7 mph 1016.2mb 80f 75f
10:54pm 6 7 mph 1016.2mb 80f 75f
10:48pm 5 7 mph 1016.3mb 80f 76f
10:42pm 5 6 mph 1016.4mb 80f 75f
10:36pm 5 6 mph 1016.3mb 80f 75f
10:30pm 6 8 mph 1016.3mb 80f 76f
10:24pm 5 7 mph 1016.3mb 80f 76f
10:18pm 6 8 mph 1016.3mb 80f 76f
10:12pm 6 8 mph 1016.4mb 80f 75f
10:06pm 6 7 mph 1016.6mb 80f 75f
10:00pm 5 7 mph 1016.6mb 80f 76f
9:54pm 6 7 mph 1016.6mb 80f 75f
9:48pm 6 8 mph 1016.6mb 80f 76f
9:42pm 5 8 mph 1016.5mb 80f 75f
9:36pm 5 7 mph 1016.4mb 80f 75f
9:30pm 5 7 mph 1016.4mb 80f 75f
9:24pm 6 8 mph 1016.3mb 80f 75f
9:18pm 6 9 mph 1016.2mb 80f 75f
9:12pm 6 7 mph 1016mb 80f 76f
9:06pm 6 7 mph 1015.9mb 80f 76f
9:00pm 7 9 mph 1015.8mb 80f 76f
8:54pm 7 9 mph 1015.6mb 80f 76f
8:48pm 7 10 mph 1015.5mb 80f 76f
8:42pm 8 11 mph 1015.4mb 80f 76f
8:36pm 9 13 mph 1015.3mb 80f 76f
8:30pm 9 13 mph 1015.4mb 80f 76f
8:24pm 9 11 mph 1015.3mb 80f 76f
8:18pm 10 14 mph 1015.3mb 80f 76f
8:12pm 10 13 mph 1015.4mb 79f 76f
8:06pm 8 9 mph 1015.4mb 79f 76f
8:00pm 8 11 mph 1015.5mb 79f 76f
7:54pm 8 13 mph 1015.4mb 79f 76f
7:48pm 8 13 mph 1015.4mb 79f 76f
7:42pm 7 9 mph 1015.3mb 79f 76f
7:36pm 7 9 mph 1015.3mb 80f 76f
7:30pm 9 11 mph 1015.4mb 80f 76f
7:24pm 10 13 mph 1015.4mb 80f 76f
7:18pm 9 13 mph 1015.4mb 80f 77f
7:12pm 9 13 mph 1015.3mb 80f 77f
7:06pm 11 16 mph 1015.2mb 80f 77f
7:00pm 10 13 mph 1015.2mb 80f 77f
6:54pm 9 14 mph 1015.1mb 80f 77f
6:48pm 10 14 mph 1015.1mb 80f 77f
6:42pm 11 16 mph 1015mb 80f 77f
6:36pm 8 15 mph 1015mb 80f 77f
6:30pm 10 16 mph 1015mb 80f 77f
6:24pm 10 15 mph 1015mb 80f 77f
6:18pm 14 17 mph 1015mb 80f 77f
6:12pm 13 17 mph 1014.9mb 80f 77f
6:06pm 8 14 mph 1015mb 80f 78f
6:00pm 14 20 mph 1015mb 80f 77f
5:54pm 13 15 mph 1015mb 80f 77f
5:48pm 13 16 mph 1015mb 80f 77f
5:42pm 10 15 mph 1015.2mb 80f 78f
5:36pm 11 17 mph 1015.2mb 80f 78f
5:30pm 14 17 mph 1015.2mb 80f 78f
5:24pm 11 14 mph 1015.3mb 80f 78f
5:18pm 9 11 mph 1015.4mb 80f 77f
5:12pm 11 16 mph 1015.4mb 80f 77f
5:06pm 10 15 mph 1015.4mb 80f 77f
5:00pm 10 14 mph 1015.5mb 80f 77f
4:54pm 10 14 mph 1015.5mb 80f 77f
4:48pm 10 14 mph 1015.5mb 80f 77f
4:42pm 10 14 mph 1015.4mb 80f 77f
4:36pm 10 13 mph 1015.5mb 80f 77f
4:30pm 11 14 mph 1015.6mb 80f 77f
4:24pm 10 14 mph 1015.7mb 80f 77f
4:18pm 11 16 mph 1015.7mb 80f 77f
4:12pm 13 15 mph 1015.7mb 80f 77f
4:06pm 9 13 mph 1015.8mb 80f 77f
4:00pm 11 16 mph 1015.8mb 80f 77f
3:54pm 10 14 mph 1015.8mb 80f 77f
3:48pm 13 15 mph 1015.8mb 80f 77f
3:42pm 9 11 mph 1015.9mb 80f 77f
3:36pm 8 14 mph 1015.9mb 80f 77f
3:30pm 9 13 mph 1016mb 80f 77f
3:24pm 8 11 mph 1016.1mb 80f 76f
3:18pm 9 14 mph 1016.1mb 80f 76f
3:12pm 9 11 mph 1016.1mb 80f 76f
3:06pm 9 11 mph 1016.1mb 80f 75f
3:00pm 8 10 mph 1016.2mb 80f 75f
2:54pm 8 10 mph 1016.3mb 80f 75f
2:48pm 7 8 mph 1016.3mb 80f 75f
2:42pm 7 9 mph 1016.3mb 80f 76f
2:36pm 6 10 mph 1016.2mb 80f 76f
2:30pm 7 9 mph 1016.2mb 80f 76f
2:24pm 6 8 mph 1016.2mb 80f 76f
2:18pm 7 9 mph 1016.2mb - 76f
2:12pm 8 10 mph 1016.2mb - 75f
2:06pm 7 9 mph 1016.2mb - 75f
2:00pm 7 9 mph 1016.3mb 80f 75f
1:54pm 7 8 mph 1016.3mb 80f 74f
1:48pm 8 10 mph 1016.4mb 80f 74f
1:42pm 9 11 mph 1016.5mb 80f 74f
1:36pm 8 9 mph 1016.6mb 80f 75f
1:30pm 9 11 mph 1016.6mb 80f 74f
1:24pm 8 10 mph 1016.7mb 80f 74f
1:18pm 8 10 mph 1016.7mb 80f 74f
1:12pm 5 8 mph 1016.7mb 80f 75f
1:06pm 9 10 mph 1016.7mb 80f 74f
1:00pm 9 13 mph 1016.7mb 80f 75f
12:54pm 10 13 mph 1016.6mb 80f 75f
12:48pm 10 14 mph 1016.6mb 80f 75f
12:42pm 8 11 mph 1016.5mb 80f 76f
12:36pm 10 15 mph 1016.5mb 80f 76f
12:30pm 10 13 mph 1016.5mb 80f 76f
12:24pm 8 13 mph 1016.6mb 80f 77f
12:18pm 8 13 mph 1016.6mb 80f 76f
12:12pm 7 11 mph 1016.7mb 80f 76f
12:06pm 6 8 mph 1016.8mb 80f 76f
12:00pm 7 9 mph 1016.8mb 80f 76f
11:54am 5 9 mph 1016.9mb 80f 76f
11:48am 7 9 mph 1016.8mb 80f 76f
11:42am 6 8 mph 1016.7mb 80f 76f
11:36am 5 6 mph 1016.8mb 80f 75f
11:30am 5 6 mph 1016.8mb 80f 75f
11:24am 5 6 mph 1016.9mb 80f 75f
11:18am 2 5 mph 1017mb 80f 75f
11:12am 5 6 mph 1017mb 80f 75f
11:06am 3 5 mph 1017mb 80f 74f
11:00am 5 6 mph 1017mb 80f 74f
10:54am 5 6 mph 1017.1mb 80f 74f
10:48am 5 6 mph 1017.1mb 80f 74f
10:42am 5 6 mph 1017mb 80f 73f
10:36am 3 5 mph 1017.1mb 80f 74f
10:30am 3 5 mph 1017.1mb 80f 74f
10:24am 3 5 mph 1017mb 80f 73f
10:18am 3 6 mph 1016.9mb 80f 73f
10:12am 5 6 mph 1016.8mb 80f 73f
10:06am 5 6 mph 1016.8mb 80f 73f
10:00am 6 8 mph 1016.7mb 80f 74f
9:54am 6 8 mph 1016.7mb 80f 73f